createdAt,value
2022-12-15T00:01:01.463Z,0.02
2022-12-15T00:02:58.873Z,0.02
2022-12-15T00:04:58.677Z,0.02
2022-12-15T00:06:58.598Z,0.02
2022-12-15T00:08:58.055Z,0.02
2022-12-15T00:10:58.158Z,0.02
2022-12-15T00:12:58.743Z,0.02
2022-12-15T00:14:57.802Z,0.02
2022-12-15T00:16:58.607Z,0.02
2022-12-15T00:18:58.456Z,0.02
2022-12-15T00:20:57.786Z,0.02
2022-12-15T00:22:58.212Z,0.02
2022-12-15T00:25:01.308Z,0.02
2022-12-15T00:26:57.746Z,0.02
2022-12-15T00:28:58.161Z,0.02
2022-12-15T00:31:02.742Z,0.02
2022-12-15T00:32:58.029Z,0.02
2022-12-15T00:34:58.181Z,0.02
2022-12-15T00:37:01.326Z,0.02
2022-12-15T00:39:02.026Z,0.02
2022-12-15T00:40:57.822Z,0.02
2022-12-15T00:43:01.062Z,0.02
2022-12-15T00:45:05.365Z,0.02
2022-12-15T00:46:58.297Z,0.02
2022-12-15T00:48:58.044Z,0.02
2022-12-15T00:50:59.044Z,0.02
2022-12-15T00:52:58.484Z,0.02
2022-12-15T00:55:03.260Z,0.02
2022-12-15T00:56:58.291Z,0.02
2022-12-15T00:58:58.405Z,0.02
2022-12-15T01:01:00.999Z,0.02
2022-12-15T01:02:59.391Z,0.02
2022-12-15T01:04:58.562Z,0.02
2022-12-15T01:06:57.719Z,0.02
2022-12-15T01:08:58.172Z,0.02
2022-12-15T01:10:57.694Z,0.02
2022-12-15T01:12:58.038Z,0.02
2022-12-15T01:14:58.142Z,0.02
2022-12-15T01:16:58.726Z,0.02
2022-12-15T01:19:01.018Z,0.02
2022-12-15T01:20:58.249Z,0.02
2022-12-15T01:22:57.523Z,0.02
2022-12-15T01:24:57.878Z,0.02
2022-12-15T01:26:58.036Z,0.02
2022-12-15T01:28:58.052Z,0.02
2022-12-15T01:30:58.485Z,0.02
2022-12-15T01:32:58.093Z,0.02
2022-12-15T01:34:57.975Z,0.02
2022-12-15T01:36:58.259Z,0.02
2022-12-15T01:39:05.210Z,0.02
2022-12-15T01:40:58.005Z,0.02
2022-12-15T01:42:58.301Z,0.02
2022-12-15T01:44:58.434Z,0.02
2022-12-15T01:46:58.237Z,0.02
2022-12-15T01:48:58.161Z,0.02
2022-12-15T01:50:58.424Z,0.02
2022-12-15T01:53:00.967Z,0.02
2022-12-15T01:54:59.701Z,0.02
2022-12-15T01:57:00.671Z,0.02
2022-12-15T01:58:57.790Z,0.02
2022-12-15T02:01:03.584Z,0.02
2022-12-15T02:03:03.522Z,0.02
2022-12-15T02:04:58.640Z,0.02
2022-12-15T02:06:57.742Z,0.02
2022-12-15T02:08:58.136Z,0.02
2022-12-15T02:10:58.507Z,0.02
2022-12-15T02:12:57.730Z,0.02
2022-12-15T02:14:58.128Z,0.02
2022-12-15T02:16:58.898Z,0.02
2022-12-15T02:18:57.788Z,0.02
2022-12-15T02:20:57.978Z,0.02
2022-12-15T02:22:58.280Z,0.02
2022-12-15T02:25:01.108Z,0.02
2022-12-15T02:26:57.923Z,0.02
2022-12-15T02:28:58.111Z,0.02
2022-12-15T02:30:57.469Z,0.02
2022-12-15T02:32:58.055Z,0.02
2022-12-15T02:34:58.343Z,0.02
2022-12-15T02:36:57.624Z,0.02
2022-12-15T02:38:57.902Z,0.02
2022-12-15T02:40:58.415Z,0.02
2022-12-15T02:42:57.577Z,0.02
2022-12-15T02:44:57.787Z,0.02
2022-12-15T02:46:58.478Z,0.02
2022-12-15T02:48:57.645Z,0.02
2022-12-15T02:50:57.819Z,0.02
2022-12-15T02:52:58.016Z,0.02
2022-12-15T02:54:58.523Z,0.02
2022-12-15T02:56:57.623Z,0.02
2022-12-15T02:58:58.159Z,0.02
2022-12-15T03:01:03.870Z,0.02
2022-12-15T03:02:59.649Z,0.02
2022-12-15T03:04:57.757Z,0.02
2022-12-15T03:07:01.075Z,0.02
2022-12-15T03:08:58.474Z,0.02
2022-12-15T03:10:57.852Z,0.02
2022-12-15T03:12:58.192Z,0.02
2022-12-15T03:14:58.448Z,0.02
2022-12-15T03:16:58.531Z,0.02
2022-12-15T03:18:58.110Z,0.02
2022-12-15T03:20:58.278Z,0.02
2022-12-15T03:22:57.604Z,0.02
2022-12-15T03:24:58.048Z,0.02
2022-12-15T03:26:58.371Z,0.02
2022-12-15T03:28:57.728Z,0.02
2022-12-15T03:31:02.089Z,0.02
2022-12-15T03:32:58.677Z,0.02
2022-12-15T03:34:57.625Z,0.02
2022-12-15T03:36:57.879Z,0.02
2022-12-15T03:38:58.362Z,0.02
2022-12-15T03:40:58.603Z,0.02
2022-12-15T03:42:57.904Z,0.02
2022-12-15T03:44:58.197Z,0.02
2022-12-15T03:47:03.224Z,0.02
2022-12-15T03:48:57.904Z,0.02
2022-12-15T03:50:57.980Z,0.02
2022-12-15T03:52:58.275Z,0.02
2022-12-15T03:54:57.686Z,0.02
2022-12-15T03:56:57.951Z,0.02
2022-12-15T03:58:58.164Z,0.02
2022-12-15T04:01:02.866Z,0.02
2022-12-15T04:03:01.964Z,0.02
2022-12-15T04:04:58.418Z,0.02
2022-12-15T04:06:58.426Z,0.02
2022-12-15T04:09:00.947Z,0.02
2022-12-15T04:11:05.629Z,0.02
2022-12-15T04:12:58.348Z,0.02
2022-12-15T04:15:00.788Z,0.02
2022-12-15T04:17:05.292Z,0.02
2022-12-15T04:18:58.166Z,0.02
2022-12-15T04:21:01.709Z,0.02
2022-12-15T04:23:02.948Z,0.02
2022-12-15T04:24:58.212Z,0.02
2022-12-15T04:26:58.381Z,0.02
2022-12-15T04:28:58.239Z,0.02
2022-12-15T04:30:58.124Z,0.02
2022-12-15T04:33:01.518Z,0.02
2022-12-15T04:34:58.487Z,0.02
2022-12-15T04:36:57.600Z,0.02
2022-12-15T04:39:02.076Z,0.02
2022-12-15T04:40:58.488Z,0.02
2022-12-15T04:42:58.577Z,0.02
2022-12-15T04:45:01.661Z,0.02
2022-12-15T04:46:58.584Z,0.02
2022-12-15T04:48:58.468Z,0.02
2022-12-15T04:51:01.093Z,0.02
2022-12-15T04:52:58.025Z,0.02
2022-12-15T04:54:58.472Z,0.02
2022-12-15T04:57:03.837Z,0.02
2022-12-15T04:58:57.990Z,0.02
2022-12-15T05:01:00.736Z,0.02
2022-12-15T05:03:01.220Z,0.02
2022-12-15T05:04:58.432Z,0.02
2022-12-15T05:06:57.873Z,0.02
2022-12-15T05:09:01.556Z,0.02
2022-12-15T05:11:00.616Z,0.02
2022-12-15T05:12:57.792Z,0.02
2022-12-15T05:15:00.908Z,0.02
2022-12-15T05:16:58.940Z,0.02
2022-12-15T05:18:57.577Z,0.02
2022-12-15T05:21:01.370Z,0.02
2022-12-15T05:22:58.267Z,0.02
2022-12-15T05:24:58.501Z,0.02
2022-12-15T05:27:04.111Z,0.02
2022-12-15T05:28:58.086Z,0.02
2022-12-15T05:30:58.570Z,0.02
2022-12-15T05:33:01.229Z,0.02
2022-12-15T05:35:02.211Z,0.02
2022-12-15T05:36:58.309Z,0.02
2022-12-15T05:39:01.625Z,0.02
2022-12-15T05:40:58.146Z,0.02
2022-12-15T05:43:01.699Z,0.02
2022-12-15T05:44:57.509Z,0.02
2022-12-15T05:46:58.612Z,0.02
2022-12-15T05:48:58.459Z,0.02
2022-12-15T05:50:57.776Z,0.02
2022-12-15T05:53:00.942Z,0.02
2022-12-15T05:54:58.588Z,0.02
2022-12-15T05:57:01.272Z,0.02
2022-12-15T05:59:05.697Z,0.02
2022-12-15T06:01:00.617Z,0.02
2022-12-15T06:03:01.431Z,0.02
2022-12-15T06:04:59.053Z,0.02
2022-12-15T06:06:58.498Z,0.02
2022-12-15T06:09:01.386Z,0.02
2022-12-15T06:10:58.248Z,0.02
2022-12-15T06:12:58.345Z,0.02
2022-12-15T06:15:01.247Z,0.02
2022-12-15T06:17:05.711Z,0.02
2022-12-15T06:19:01.548Z,0.02
2022-12-15T06:21:00.970Z,0.02
2022-12-15T06:23:01.554Z,0.02
2022-12-15T06:24:58.553Z,0.02
2022-12-15T06:27:01.259Z,0.02
2022-12-15T06:28:58.353Z,0.02
2022-12-15T06:30:58.489Z,0.02
2022-12-15T06:33:01.281Z,0.02
2022-12-15T06:34:58.989Z,0.02
2022-12-15T06:36:58.338Z,0.02
2022-12-15T06:39:01.461Z,0.02
2022-12-15T06:41:00.942Z,0.02
2022-12-15T06:42:57.784Z,0.02
2022-12-15T06:45:01.271Z,0.02
2022-12-15T06:46:58.749Z,0.02
2022-12-15T06:48:58.168Z,0.02
2022-12-15T06:51:01.641Z,0.02
2022-12-15T06:52:58.469Z,0.02
2022-12-15T06:54:57.852Z,0.02
2022-12-15T06:57:06.700Z,0.02
2022-12-15T06:58:58.279Z,0.02
2022-12-15T07:01:00.565Z,0.02
2022-12-15T07:03:04.194Z,0.02
2022-12-15T07:04:58.563Z,0.02
2022-12-15T07:06:58.245Z,0.02
2022-12-15T07:09:05.258Z,0.02
2022-12-15T07:10:58.007Z,0.02
2022-12-15T07:12:58.305Z,0.02
2022-12-15T07:15:04.539Z,0.02
2022-12-15T07:16:59.008Z,0.02
2022-12-15T07:18:58.430Z,0.02
2022-12-15T07:21:02.740Z,0.02
2022-12-15T07:22:57.961Z,0.02
2022-12-15T07:24:59.207Z,0.02
2022-12-15T07:27:05.909Z,0.02
2022-12-15T07:28:59.819Z,0.02
2022-12-15T07:31:01.878Z,0.02
2022-12-15T07:33:01.714Z,0.02
2022-12-15T07:34:59.540Z,0.02
2022-12-15T07:37:03.557Z,0.02
2022-12-15T07:39:02.201Z,0.02
2022-12-15T07:40:57.689Z,0.02
2022-12-15T07:42:57.854Z,0.02
2022-12-15T07:45:01.389Z,0.02
2022-12-15T07:46:59.085Z,0.02
2022-12-15T07:49:02.226Z,0.02
2022-12-15T07:51:09.753Z,0.02
2022-12-15T07:52:58.256Z,0.02
2022-12-15T07:54:58.348Z,0.02
2022-12-15T07:57:13.286Z,0.02
2022-12-15T07:58:57.827Z,0.02
2022-12-15T08:01:06.695Z,0.02
2022-12-15T08:03:01.735Z,0.02
2022-12-15T08:04:57.808Z,0.02
2022-12-15T08:07:00.641Z,0.02
2022-12-15T08:09:02.542Z,0.02
2022-12-15T08:10:58.522Z,0.02
2022-12-15T08:12:57.716Z,0.02
2022-12-15T08:15:03.739Z,0.02
2022-12-15T08:16:59.389Z,0.02
2022-12-15T08:18:57.853Z,0.02
2022-12-15T08:21:12.807Z,0.02
2022-12-15T08:22:57.664Z,0.02
2022-12-15T08:24:57.790Z,0.02
2022-12-15T08:27:03.891Z,0.02
2022-12-15T08:29:11.908Z,0.02
2022-12-15T08:30:58.080Z,0.02
2022-12-15T08:33:03.444Z,0.02
2022-12-15T08:34:58.064Z,0.02
2022-12-15T08:36:58.098Z,0.02
2022-12-15T08:39:02.271Z,0.02
2022-12-15T08:40:58.526Z,0.02
2022-12-15T08:42:57.708Z,0.02
2022-12-15T08:44:58.191Z,0.02
2022-12-15T08:46:57.910Z,0.02
2022-12-15T08:48:57.984Z,0.02
2022-12-15T08:50:58.497Z,0.02
2022-12-15T08:53:33.014Z,0.02
2022-12-15T08:54:57.811Z,0.02
2022-12-15T08:56:58.437Z,0.02
2022-12-15T08:58:57.678Z,0.02
2022-12-15T09:01:03.374Z,0.02
2022-12-15T09:02:59.083Z,0.02
2022-12-15T09:04:58.725Z,0.02
2022-12-15T09:07:02.359Z,0.02
2022-12-15T09:09:03.115Z,0.02
2022-12-15T09:11:03.987Z,0.02
2022-12-15T09:12:57.662Z,0.02
2022-12-15T09:15:03.106Z,0.02
2022-12-15T09:17:08.266Z,0.02
2022-12-15T09:18:57.835Z,0.02
2022-12-15T09:21:02.860Z,0.02
2022-12-15T09:23:01.777Z,0.02
2022-12-15T09:25:09.347Z,0.02
2022-12-15T09:26:58.101Z,0.02
2022-12-15T09:29:02.364Z,0.02
2022-12-15T09:30:58.512Z,0.02
2022-12-15T09:32:59.581Z,0.02
2022-12-15T09:35:01.626Z,0.02
2022-12-15T09:36:58.691Z,0.02
2022-12-15T09:38:58.053Z,0.02
2022-12-15T09:41:01.410Z,0.02
2022-12-15T09:43:33.835Z,0.02
2022-12-15T09:44:57.986Z,0.02
2022-12-15T09:47:01.837Z,0.02
2022-12-15T09:48:58.327Z,0.02
2022-12-15T09:50:57.799Z,0.02
2022-12-15T09:53:23.131Z,0.02
2022-12-15T09:54:59.751Z,0.02
2022-12-15T09:57:01.364Z,0.02
2022-12-15T09:59:06.250Z,3.47
2022-12-15T10:01:03.934Z,3.47
2022-12-15T10:03:02.971Z,3.47
2022-12-15T10:05:02.013Z,0.05
2022-12-15T10:07:24.553Z,0.05
2022-12-15T10:09:01.839Z,0.05
2022-12-15T10:10:59.759Z,0.05
2022-12-15T10:13:12.526Z,0.05
2022-12-15T10:15:01.317Z,0.05
2022-12-15T10:17:01.428Z,0.05
2022-12-15T10:19:02.685Z,0.05
2022-12-15T10:20:59.845Z,0.05
2022-12-15T10:23:01.984Z,0.05
2022-12-15T10:26:58.873Z,0.05
2022-12-15T10:31:02.073Z,0.05
2022-12-15T10:34:59.866Z,0.05
2022-12-15T10:39:01.923Z,0.05
2022-12-15T10:42:59.656Z,0.05
2022-12-15T10:46:59.813Z,0.05
2022-12-15T10:51:01.617Z,0.05
2022-12-15T10:54:59.749Z,0.05
2022-12-15T10:59:01.515Z,0.05
2022-12-15T11:03:09.164Z,0.05
2022-12-15T11:06:57.982Z,0.05
2022-12-15T11:11:01.237Z,0.38
2022-12-15T11:14:59.160Z,0.38
2022-12-15T11:19:00.126Z,0.03
2022-12-15T11:22:58.175Z,0.03
2022-12-15T11:27:03.558Z,0.03
2022-12-15T11:30:58.178Z,0.02
2022-12-15T11:34:57.631Z,0.02
2022-12-15T11:38:58.841Z,0.02
2022-12-15T11:43:00.081Z,0.02
2022-12-15T11:47:00.158Z,0.02
2022-12-15T11:51:02.387Z,0.02
2022-12-15T11:55:00.392Z,0.02
2022-12-15T11:59:00.146Z,0.02
2022-12-15T12:03:00.971Z,0.02
2022-12-15T12:07:00.371Z,0.02
2022-12-15T12:10:59.941Z,0.02
2022-12-15T12:15:02.119Z,0.02
2022-12-15T12:19:01.973Z,0.02
2022-12-15T12:23:01.868Z,0.02
2022-12-15T12:27:01.679Z,0.02
2022-12-15T12:31:01.603Z,0.02
2022-12-15T12:35:31.600Z,0.02
2022-12-15T12:43:01.651Z,0.24
2022-12-15T12:47:00.258Z,0.03
2022-12-15T12:51:01.835Z,0.03
2022-12-15T12:55:01.476Z,0.02
2022-12-15T12:58:59.882Z,0.02
2022-12-15T13:03:01.949Z,0.02
2022-12-15T13:07:00.087Z,0.02
2022-12-15T13:10:58.721Z,0.02
2022-12-15T13:15:06.217Z,0.02
2022-12-15T13:19:00.255Z,0.02
2022-12-15T13:23:00.075Z,0.02
2022-12-15T13:26:59.980Z,0.02
2022-12-15T13:31:06.248Z,0.02
2022-12-15T13:34:57.541Z,0.02
2022-12-15T13:39:01.864Z,0.02
2022-12-15T13:43:43.710Z,0.02
2022-12-15T13:46:58.494Z,0.02
2022-12-15T13:55:02.520Z,0.01
2022-12-15T13:59:00.239Z,0.01
2022-12-15T14:02:58.397Z,0.01
2022-12-15T14:07:02.010Z,0.01
2022-12-15T14:11:06.927Z,0.01
2022-12-15T14:15:00.393Z,0.01
2022-12-15T14:19:01.881Z,0.01
2022-12-15T14:23:02.676Z,0.01
2022-12-15T14:27:01.773Z,0.01
2022-12-15T14:31:01.504Z,0.01
2022-12-15T14:35:02.134Z,0.01
2022-12-15T14:38:57.489Z,0.01
2022-12-15T14:43:01.910Z,0.01
2022-12-15T14:46:58.079Z,0.01
2022-12-15T14:50:59.252Z,0.01
2022-12-15T14:54:58.043Z,0.01
2022-12-15T14:58:59.081Z,0.01
2022-12-15T15:02:58.895Z,0.01
2022-12-15T15:03:26.415Z,0.01
2022-12-15T15:03:31.631Z,0.01
2022-12-15T15:04:57.966Z,0.01
2022-12-15T15:07:03.535Z,0.01
2022-12-15T15:08:58.626Z,0.01
2022-12-15T15:10:57.845Z,0.01
2022-12-15T15:12:58.298Z,0.01
2022-12-15T15:14:57.682Z,0.01
2022-12-15T15:16:58.669Z,0.01
2022-12-15T15:18:58.327Z,0.01
2022-12-15T15:20:57.842Z,0.01
2022-12-15T15:22:58.084Z,0.01
2022-12-15T15:24:58.284Z,0.01
2022-12-15T15:26:58.731Z,0.01
2022-12-15T15:28:58.557Z,0.01
2022-12-15T15:31:00.038Z,0.01
2022-12-15T15:32:58.399Z,0.01
2022-12-15T15:34:58.396Z,0.01
2022-12-15T15:36:58.429Z,0.01
2022-12-15T15:38:58.666Z,0.01
2022-12-15T15:40:58.452Z,0.01
2022-12-15T15:43:05.967Z,0.01
2022-12-15T15:44:57.841Z,0.01
2022-12-15T15:46:58.663Z,0.01
2022-12-15T15:48:59.350Z,0.01
2022-12-15T15:50:57.828Z,0.01
2022-12-15T15:52:57.925Z,0.01
2022-12-15T15:54:58.256Z,0.01
2022-12-15T15:56:57.660Z,0.01
2022-12-15T15:58:58.802Z,0.01
2022-12-15T16:00:59.393Z,0.01
2022-12-15T16:02:59.135Z,0.01
2022-12-15T16:04:58.279Z,0.01
2022-12-15T16:06:59.359Z,0.01
2022-12-15T16:08:58.766Z,0.01
2022-12-15T16:10:57.974Z,0.01
2022-12-15T16:12:58.379Z,0.01
2022-12-15T16:14:57.619Z,0.01
2022-12-15T16:16:58.594Z,0.01
2022-12-15T16:18:59.020Z,0.01
2022-12-15T16:20:58.041Z,0.01
2022-12-15T16:22:57.529Z,0.01
2022-12-15T16:24:58.040Z,0.01
2022-12-15T16:26:57.612Z,0.01
2022-12-15T16:28:59.090Z,0.01
2022-12-15T16:30:57.665Z,0.01
2022-12-15T16:32:58.132Z,0.01
2022-12-15T16:34:57.504Z,0.01
2022-12-15T16:36:57.920Z,0.01
2022-12-15T16:38:58.938Z,0.01
2022-12-15T16:40:58.510Z,0.01
2022-12-15T16:42:57.763Z,0.01
2022-12-15T16:44:58.067Z,0.01
2022-12-15T16:46:59.120Z,0.01
2022-12-15T16:48:59.295Z,0.01
2022-12-15T16:50:58.276Z,0.01
2022-12-15T16:52:58.517Z,0.01
2022-12-15T16:54:57.577Z,0.01
2022-12-15T16:56:58.155Z,0.01
2022-12-15T16:59:31.840Z,0.01
2022-12-15T17:01:03.985Z,0.01
2022-12-15T17:03:00.426Z,0.01
2022-12-15T17:04:58.095Z,0.01
2022-12-15T17:06:58.138Z,0.01
2022-12-15T17:08:58.194Z,0.01
2022-12-15T17:10:57.765Z,0.01
2022-12-15T17:12:58.012Z,0.01
2022-12-15T17:14:58.209Z,0.01
2022-12-15T17:16:58.013Z,0.01
2022-12-15T17:18:58.200Z,0.14
2022-12-15T17:21:26.987Z,0.14
2022-12-15T17:22:58.540Z,0.14
2022-12-15T17:24:57.645Z,0.03
2022-12-15T17:27:24.278Z,0.03
2022-12-15T17:28:58.092Z,0.03
2022-12-15T17:30:58.762Z,0.03
2022-12-15T17:32:57.934Z,0.03
2022-12-15T17:34:58.111Z,0.03
2022-12-15T17:36:58.323Z,0.03
2022-12-15T17:38:57.660Z,0.03
2022-12-15T17:40:58.300Z,0.03
2022-12-15T17:42:59.561Z,0.03
2022-12-15T17:45:30.917Z,0.03
2022-12-15T17:46:58.446Z,0.03
2022-12-15T17:48:58.518Z,0.03
2022-12-15T17:50:57.680Z,0.03
2022-12-15T17:52:57.860Z,0.03
2022-12-15T17:54:58.471Z,0.03
2022-12-15T17:56:57.829Z,0.03
2022-12-15T17:58:58.027Z,0.03
2022-12-15T18:01:07.092Z,0.03
2022-12-15T18:03:00.230Z,0.03
2022-12-15T18:04:58.758Z,0.03
2022-12-15T18:07:02.155Z,0.03
2022-12-15T18:08:57.677Z,0.03
2022-12-15T18:10:58.028Z,0.03
2022-12-15T18:12:58.510Z,0.03
2022-12-15T18:14:57.974Z,0.03
2022-12-15T18:16:58.352Z,0.03
2022-12-15T18:18:58.047Z,0.03
2022-12-15T18:20:58.400Z,0.03
2022-12-15T18:22:57.831Z,0.03
2022-12-15T18:24:58.371Z,0.03
2022-12-15T18:27:00.207Z,0.03
2022-12-15T18:28:57.968Z,0.03
2022-12-15T18:30:58.438Z,0.16
2022-12-15T18:32:58.602Z,0.16
2022-12-15T18:35:01.441Z,0.16
2022-12-15T18:36:57.901Z,0.03
2022-12-15T18:38:58.232Z,0.03
2022-12-15T18:41:01.695Z,0.03
2022-12-15T18:42:57.837Z,0.03
2022-12-15T18:44:58.196Z,0.03
2022-12-15T18:46:59.742Z,0.03
2022-12-15T18:48:57.775Z,0.03
2022-12-15T18:50:58.153Z,0.03
2022-12-15T18:53:03.882Z,0.03
2022-12-15T18:54:57.794Z,0.03
2022-12-15T18:56:58.103Z,0.03
2022-12-15T18:59:00.910Z,0.03
2022-12-15T19:01:02.177Z,0.03
2022-12-15T19:02:59.600Z,0.03
2022-12-15T19:04:57.877Z,0.03
2022-12-15T19:07:00.103Z,0.03
2022-12-15T19:08:57.530Z,0.03
2022-12-15T19:10:58.240Z,0.03
2022-12-15T19:12:58.919Z,0.03
2022-12-15T19:14:57.990Z,0.03
2022-12-15T19:16:58.803Z,0.03
2022-12-15T19:18:57.751Z,0.03
2022-12-15T19:20:58.131Z,0.03
2022-12-15T19:22:58.296Z,0.03
2022-12-15T19:24:57.562Z,0.03
2022-12-15T19:26:57.993Z,0.03
2022-12-15T19:28:58.449Z,0.03
2022-12-15T19:31:04.835Z,0.03
2022-12-15T19:32:57.975Z,0.03
2022-12-15T19:34:58.442Z,0.03
2022-12-15T19:36:59.627Z,0.03
2022-12-15T19:38:58.135Z,0.03
2022-12-15T19:40:57.784Z,0.03
2022-12-15T19:42:58.431Z,0.03
2022-12-15T19:44:58.308Z,0.03
2022-12-15T19:46:58.135Z,0.03
2022-12-15T19:48:58.443Z,0.03
2022-12-15T19:50:57.624Z,0.03
2022-12-15T19:52:57.832Z,0.03
2022-12-15T19:54:58.206Z,0.03
2022-12-15T19:56:58.601Z,0.03
2022-12-15T19:59:02.063Z,0.03
2022-12-15T20:00:58.897Z,0.03
2022-12-15T20:02:59.231Z,0.03
2022-12-15T20:04:58.563Z,0.03
2022-12-15T20:06:57.588Z,0.03
2022-12-15T20:08:57.844Z,0.03
2022-12-15T20:11:06.687Z,0.03
2022-12-15T20:12:57.825Z,0.03
2022-12-15T20:14:58.116Z,0.03
2022-12-15T20:16:58.618Z,0.03
2022-12-15T20:18:58.355Z,0.03
2022-12-15T20:20:58.013Z,0.03
2022-12-15T20:22:58.344Z,0.03
2022-12-15T20:24:57.776Z,0.03
2022-12-15T20:26:58.207Z,0.03
2022-12-15T20:28:57.633Z,0.03
2022-12-15T20:30:58.061Z,0.03
2022-12-15T20:33:01.131Z,0.03
2022-12-15T20:34:57.912Z,0.03
2022-12-15T20:36:58.024Z,0.03
2022-12-15T20:38:57.473Z,0.03
2022-12-15T20:40:59.352Z,0.03
2022-12-15T20:42:58.260Z,0.03
2022-12-15T20:44:57.899Z,0.03
2022-12-15T20:46:58.774Z,0.03
2022-12-15T20:48:57.775Z,0.03
2022-12-15T20:50:58.111Z,0.03
2022-12-15T20:52:58.475Z,0.03
2022-12-15T20:54:57.753Z,0.03
2022-12-15T20:56:58.255Z,0.03
2022-12-15T20:59:06.534Z,0.03
2022-12-15T21:01:03.063Z,0.03
2022-12-15T21:02:59.341Z,0.03
2022-12-15T21:04:58.060Z,0.03
2022-12-15T21:07:05.780Z,0.03
2022-12-15T21:08:57.685Z,0.03
2022-12-15T21:10:58.210Z,0.03
2022-12-15T21:13:05.319Z,0.03
2022-12-15T21:14:57.899Z,0.03
2022-12-15T21:16:58.815Z,0.03
2022-12-15T21:20:06.250Z,0.03
2022-12-15T21:20:58.382Z,0.03
2022-12-15T21:22:57.715Z,0.03
2022-12-15T21:24:58.302Z,0.03
2022-12-15T21:26:57.880Z,0.03
2022-12-15T21:28:58.281Z,0.03
2022-12-15T21:30:57.789Z,0.03
2022-12-15T21:32:57.948Z,0.03
2022-12-15T21:34:57.627Z,0.03
2022-12-15T21:36:57.874Z,0.03
2022-12-15T21:38:58.999Z,0.03
2022-12-15T21:40:59.633Z,0.03
2022-12-15T21:42:58.330Z,0.03
2022-12-15T21:44:58.379Z,0.65
2022-12-15T21:47:02.909Z,0.65
2022-12-15T21:48:58.594Z,0.65
2022-12-15T21:50:57.793Z,0.65
2022-12-15T21:52:58.240Z,0.65
2022-12-15T21:55:06.074Z,0.65
2022-12-15T21:56:58.120Z,0.65
2022-12-15T21:58:58.692Z,0.65
2022-12-15T22:01:08.535Z,0.65
2022-12-15T22:02:58.927Z,0.65
2022-12-15T22:04:58.464Z,0.65
2022-12-15T22:07:02.181Z,0.65
2022-12-15T22:08:58.739Z,0.65
2022-12-15T22:10:58.095Z,0.65
2022-12-15T22:12:59.894Z,0.65
2022-12-15T22:14:57.757Z,0.65
2022-12-15T22:16:58.862Z,0.65
2022-12-15T22:18:58.975Z,0.65
2022-12-15T22:20:58.051Z,0.65
2022-12-15T22:23:06.020Z,0.65
2022-12-15T22:24:57.923Z,0.65
2022-12-15T22:26:58.316Z,0.65
2022-12-15T22:28:58.173Z,0.65
2022-12-15T22:30:58.266Z,0.65
2022-12-15T22:32:58.416Z,0.65
2022-12-15T22:34:57.903Z,0.65
2022-12-15T22:36:58.660Z,0.65
2022-12-15T22:39:01.683Z,0.65
2022-12-15T22:40:58.264Z,0.65
2022-12-15T22:42:57.673Z,0.65
2022-12-15T22:44:57.889Z,0.65
2022-12-15T22:46:58.789Z,0.65
2022-12-15T22:48:58.374Z,0.65
2022-12-15T22:50:58.249Z,0.65
2022-12-15T22:52:57.468Z,0.65
2022-12-15T22:54:58.046Z,0.65
2022-12-15T22:56:58.266Z,0.65
2022-12-15T22:58:57.984Z,0.65
2022-12-15T23:01:06.546Z,0.65
2022-12-15T23:02:58.839Z,0.65
2022-12-15T23:04:57.777Z,0.65
2022-12-15T23:06:58.048Z,0.65
2022-12-15T23:09:05.248Z,0.65
2022-12-15T23:10:57.939Z,0.65
2022-12-15T23:12:58.423Z,0.65
2022-12-15T23:14:57.493Z,0.65
2022-12-15T23:16:58.386Z,0.65
2022-12-15T23:18:58.397Z,0.65
2022-12-15T23:20:57.746Z,0.65
2022-12-15T23:22:57.922Z,0.65
2022-12-15T23:24:58.462Z,0.65
2022-12-15T23:26:57.735Z,0.65
2022-12-15T23:28:58.034Z,0.65
2022-12-15T23:30:58.733Z,0.65
2022-12-15T23:32:57.871Z,0.65
2022-12-15T23:34:58.237Z,0.65
2022-12-15T23:36:58.486Z,0.65
2022-12-15T23:38:57.857Z,0.65
2022-12-15T23:41:04.307Z,0.65
2022-12-15T23:42:57.752Z,0.65
2022-12-15T23:44:58.318Z,0.65
2022-12-15T23:46:58.532Z,0.65
2022-12-15T23:48:58.082Z,0.65
2022-12-15T23:50:58.625Z,0.65
2022-12-15T23:53:03.294Z,0.65
2022-12-15T23:54:58.218Z,0.65
2022-12-15T23:56:58.478Z,0.65
2022-12-15T23:58:57.670Z,0.65
